Time;durP1;ratioP1;P1;durP2;ratioP2;P2;SDS_P1;SDS_P2;PMS_P1;PMS_P2;Temp;Humidity;BMP_temperature;BMP_pressure;BME280_temperature;BME280_humidity;BME280_pressure;Samples;Min_cycle;Max_cycle;Signal;HPM_P1;HPM_P2
2023/05/14 00:00:46;;;;;;;16.02;9.05;;;;;;;14.25;77.55;101831.03;4990277;28;20088;-73
2023/05/14 00:03:12;;;;;;;12.05;8.93;;;;;;;14.23;77.17;101833.00;4994361;28;20018;-73
2023/05/14 00:05:37;;;;;;;11.57;9.75;;;;;;;14.20;78.08;101833.22;4989995;28;20053;-72
2023/05/14 00:08:03;;;;;;;13.32;8.68;;;;;;;14.18;78.09;101835.22;4994223;28;20501;-72
2023/05/14 00:10:28;;;;;;;14.35;9.07;;;;;;;14.12;78.28;101828.28;4990069;28;20105;-73
2023/05/14 00:12:53;;;;;;;12.90;9.30;;;;;;;14.07;77.38;101825.00;4988296;28;20125;-73
2023/05/14 00:15:19;;;;;;;13.55;9.88;;;;;;;14.04;77.42;101831.59;4988112;28;20062;-73
2023/05/14 00:17:45;;;;;;;11.93;9.18;;;;;;;13.97;77.87;101815.72;4989207;28;20034;-73
2023/05/14 00:20:11;;;;;;;16.40;9.52;;;;;;;13.91;79.78;101817.03;4988206;28;20113;-73
2023/05/14 00:22:37;;;;;;;15.00;10.07;;;;;;;13.82;81.17;101827.75;4987510;28;20038;-72
2023/05/14 00:25:03;;;;;;;14.05;9.23;;;;;;;13.77;80.44;101826.22;4989779;28;20034;-72
2023/05/14 00:27:28;;;;;;;14.13;10.48;;;;;;;13.73;80.10;101823.78;4989695;28;20057;-73
2023/05/14 00:29:54;;;;;;;21.75;10.98;;;;;;;13.66;79.58;101819.72;4989425;28;20266;-72
2023/05/14 00:32:19;;;;;;;14.50;11.00;;;;;;;13.63;79.15;101809.91;4988737;28;20258;-72
2023/05/14 00:34:44;;;;;;;19.00;11.20;;;;;;;13.62;79.38;101824.56;4988752;28;20327;-73
2023/05/14 00:37:10;;;;;;;15.82;10.80;;;;;;;13.56;80.29;101811.28;4986445;28;20451;-72
2023/05/14 00:39:35;;;;;;;19.55;12.00;;;;;;;13.49;80.36;101812.72;4989311;28;20036;-73
2023/05/14 00:42:01;;;;;;;13.32;10.43;;;;;;;13.48;80.06;101809.09;4993604;28;20077;-73
2023/05/14 00:44:26;;;;;;;15.55;11.13;;;;;;;13.38;80.72;101794.34;4989938;28;20347;-72
2023/05/14 00:46:52;;;;;;;19.15;12.18;;;;;;;13.39;80.80;101807.00;4987764;28;20117;-73
2023/05/14 00:49:17;;;;;;;17.92;13.02;;;;;;;13.36;80.44;101799.00;4989093;28;20462;-73
2023/05/14 00:51:45;;;;;;;13.70;11.35;;;;;;;13.35;79.53;101794.53;4988246;28;20042;-73
2023/05/14 00:54:13;;;;;;;18.23;12.13;;;;;;;13.32;79.92;101796.59;4996213;28;20048;-72
2023/05/14 00:56:39;;;;;;;20.08;13.35;;;;;;;13.27;79.61;101789.59;4988697;28;20479;-73
2023/05/14 00:59:04;;;;;;;20.25;12.52;;;;;;;13.24;80.45;101797.09;4987332;28;20125;-72
2023/05/14 01:01:30;;;;;;;21.75;12.23;;;;;;;13.12;80.04;101785.13;4987938;28;20048;-72
2023/05/14 01:03:56;;;;;;;17.45;12.95;;;;;;;13.15;80.99;101789.50;4988834;28;20033;-73
2023/05/14 01:06:32;;;;;;;15.80;13.40;;;;;;;13.13;80.56;101794.22;4988194;28;20038;-73
2023/05/14 01:09:12;;;;;;;23.80;13.75;;;;;;;13.10;80.90;101803.47;5003517;28;20121;-73
2023/05/14 01:11:56;;;;;;;23.92;13.88;;;;;;;13.08;80.63;101791.78;4988373;28;20041;-73
2023/05/14 01:14:31;;;;;;;19.75;13.60;;;;;;;12.99;80.80;101787.81;4986993;28;20034;-73
2023/05/14 01:17:01;;;;;;;19.00;13.27;;;;;;;12.99;81.56;101795.16;4988872;28;20030;-73
2023/05/14 01:19:38;;;;;;;20.23;13.48;;;;;;;12.93;81.76;101792.84;4971763;28;20065;-73
2023/05/14 01:22:03;;;;;;;20.65;14.57;;;;;;;12.86;81.87;101796.94;4999757;28;20034;-73
2023/05/14 01:24:29;;;;;;;19.08;14.85;;;;;;;12.83;82.36;101784.38;4992171;28;20045;-73
2023/05/14 01:27:02;;;;;;;21.38;14.00;;;;;;;12.79;82.41;101791.03;4987238;28;20426;-73
2023/05/14 01:29:29;;;;;;;20.52;14.45;;;;;;;12.74;83.57;101783.16;4987364;28;20055;-73
2023/05/14 01:31:57;;;;;;;16.20;13.48;;;;;;;12.72;82.11;101785.06;4987244;28;20073;-73
2023/05/14 01:34:27;;;;;;;19.23;15.05;;;;;;;12.73;81.89;101783.25;5002211;28;20505;-72
2023/05/14 01:36:55;;;;;;;18.98;14.73;;;;;;;12.71;82.32;101777.00;4986026;28;20053;-73
2023/05/14 01:39:22;;;;;;;18.92;14.88;;;;;;;12.65;82.52;101777.41;4986052;28;20931;-73
2023/05/14 01:41:48;;;;;;;19.75;14.85;;;;;;;12.62;82.89;101767.56;4987618;28;20030;-72
2023/05/14 01:44:14;;;;;;;19.20;13.98;;;;;;;12.60;82.52;101780.44;4969928;28;20041;-72
2023/05/14 01:46:39;;;;;;;20.00;14.68;;;;;;;12.52;82.68;101774.63;4987277;28;20375;-72
2023/05/14 01:49:04;;;;;;;20.55;14.73;;;;;;;12.49;83.57;101786.59;4987750;28;20066;-73
2023/05/14 01:51:30;;;;;;;21.80;16.02;;;;;;;12.44;83.65;101785.16;4986383;28;20030;-72
2023/05/14 01:53:55;;;;;;;20.75;15.55;;;;;;;12.39;83.89;101784.56;4986977;28;20057;-72
2023/05/14 01:56:22;;;;;;;21.75;14.57;;;;;;;12.37;83.63;101787.41;5004189;28;20482;-72
2023/05/14 01:58:48;;;;;;;24.88;15.32;;;;;;;12.32;83.95;101775.94;4988267;28;20424;-73
2023/05/14 02:01:14;;;;;;;22.55;15.30;;;;;;;12.31;84.31;101770.53;4986358;28;20041;-73
2023/05/14 02:03:39;;;;;;;18.90;14.93;;;;;;;12.28;83.55;101770.75;4985922;28;20459;-72
2023/05/14 02:06:05;;;;;;;20.38;15.18;;;;;;;12.29;83.90;101772.50;4985834;28;20030;-73
2023/05/14 02:08:30;;;;;;;18.58;14.75;;;;;;;12.26;83.77;101762.66;4985055;28;20509;-72
2023/05/14 02:10:55;;;;;;;22.42;15.80;;;;;;;12.28;83.91;101768.03;4998664;28;20509;-72
2023/05/14 02:13:24;;;;;;;19.48;15.43;;;;;;;12.25;84.22;101769.09;4985828;28;20069;-73
2023/05/14 02:15:49;;;;;;;23.02;15.85;;;;;;;12.20;85.64;101766.66;4986187;28;20250;-72
2023/05/14 02:18:15;;;;;;;23.30;15.45;;;;;;;12.20;85.25;101763.94;4987061;28;20034;-72
2023/05/14 02:20:40;;;;;;;21.33;15.40;;;;;;;12.16;85.99;101775.16;4987203;28;20038;-72
2023/05/14 02:23:06;;;;;;;18.17;14.88;;;;;;;12.11;86.01;101777.28;4986360;28;20030;-73
2023/05/14 02:25:31;;;;;;;21.95;16.38;;;;;;;12.10;85.01;101761.91;4986974;28;20042;-73
2023/05/14 02:27:56;;;;;;;24.40;16.85;;;;;;;12.12;85.52;101762.69;4999610;28;20472;-72
2023/05/14 02:30:22;;;;;;;23.48;15.98;;;;;;;12.15;84.90;101763.34;5000122;28;20033;-73
2023/05/14 02:32:47;;;;;;;21.08;15.68;;;;;;;12.19;85.25;101761.31;5003331;28;20470;-72
2023/05/14 02:35:13;;;;;;;20.55;15.32;;;;;;;12.18;83.82;101754.13;5001505;28;20402;-73
2023/05/14 02:37:38;;;;;;;21.58;16.23;;;;;;;12.21;85.48;101764.81;5005308;28;20509;-73
2023/05/14 02:40:04;;;;;;;26.33;17.88;;;;;;;12.14;86.49;101752.56;4987116;28;20038;-72
2023/05/14 02:42:30;;;;;;;23.98;16.67;;;;;;;12.12;85.95;101758.09;4987087;28;20113;-72
2023/05/14 02:44:55;;;;;;;22.77;15.80;;;;;;;12.07;86.44;101757.50;4987486;28;20019;-72
2023/05/14 02:47:21;;;;;;;21.60;15.50;;;;;;;12.05;85.99;101761.34;4995003;28;20100;-73
2023/05/14 02:49:46;;;;;;;23.70;17.27;;;;;;;12.02;86.23;101758.78;4987214;28;20398;-72
2023/05/14 02:52:11;;;;;;;24.90;16.83;;;;;;;12.00;85.76;101762.50;4984282;28;20115;-73
2023/05/14 02:54:37;;;;;;;28.25;18.10;;;;;;;11.97;86.76;101765.41;4986569;28;20046;-72
2023/05/14 02:57:02;;;;;;;27.45;17.88;;;;;;;11.96;86.74;101765.50;4986525;28;20058;-73
2023/05/14 02:59:28;;;;;;;29.33;16.83;;;;;;;11.91;87.42;101762.22;4987649;28;20034;-72
2023/05/14 03:01:54;;;;;;;23.15;17.45;;;;;;;11.86;88.20;101773.41;4992986;28;20023;-72
2023/05/14 03:04:19;;;;;;;24.00;18.10;;;;;;;11.81;87.63;101767.34;4985073;28;20265;-72
2023/05/14 03:06:45;;;;;;;27.77;18.75;;;;;;;11.76;88.16;101755.84;4986145;28;20073;-72
2023/05/14 03:09:10;;;;;;;27.20;17.83;;;;;;;11.74;88.06;101755.03;4985133;28;20026;-72
2023/05/14 03:11:36;;;;;;;26.13;17.52;;;;;;;11.72;88.23;101757.88;4985263;28;20137;-72
2023/05/14 03:14:01;;;;;;;26.35;18.15;;;;;;;11.64;87.82;101745.69;4986656;28;20033;-73
2023/05/14 03:16:26;;;;;;;26.15;18.23;;;;;;;11.64;88.95;101754.75;4987452;28;20031;-72
2023/05/14 03:18:52;;;;;;;33.17;18.80;;;;;;;11.60;89.26;101747.72;4986658;28;20035;-73
2023/05/14 03:21:17;;;;;;;23.38;16.85;;;;;;;11.58;88.32;101746.97;4986426;28;20065;-73
2023/05/14 03:23:42;;;;;;;24.45;17.80;;;;;;;11.57;88.13;101756.13;4991468;28;20017;-73
2023/05/14 03:26:08;;;;;;;27.42;18.00;;;;;;;11.52;88.09;101741.91;4999837;28;20076;-73
2023/05/14 03:28:33;;;;;;;24.60;17.85;;;;;;;11.53;87.32;101743.66;4986527;28;20129;-72
2023/05/14 03:30:59;;;;;;;25.92;17.50;;;;;;;11.53;87.53;101735.47;4985946;28;20458;-73
2023/05/14 03:33:24;;;;;;;27.70;18.65;;;;;;;11.48;88.86;101741.22;4985090;28;20048;-73
2023/05/14 03:35:50;;;;;;;26.67;17.77;;;;;;;11.40;88.85;101740.81;4986360;28;20094;-72
2023/05/14 03:38:15;;;;;;;26.30;19.23;;;;;;;11.42;88.64;101743.41;4984889;28;20119;-73
2023/05/14 03:40:41;;;;;;;23.85;17.23;;;;;;;11.37;88.54;101743.69;4994765;28;20034;-72
2023/05/14 03:43:06;;;;;;;31.17;18.95;;;;;;;11.36;89.93;101750.13;4985012;28;20042;-73
2023/05/14 03:45:32;;;;;;;29.80;17.92;;;;;;;11.31;89.51;101735.91;4987285;28;20094;-72
2023/05/14 03:47:57;;;;;;;25.85;17.42;;;;;;;11.30;88.88;101738.75;4986668;28;20061;-72
2023/05/14 03:50:24;;;;;;;28.27;17.88;;;;;;;11.31;88.97;101737.75;4985182;28;20450;-73
2023/05/14 03:52:51;;;;;;;28.25;18.55;;;;;;;11.28;89.14;101736.09;4984817;28;20566;-72
2023/05/14 03:55:20;;;;;;;27.73;18.23;;;;;;;11.27;89.48;101745.25;4984950;28;20023;-72
2023/05/14 03:57:49;;;;;;;27.02;18.25;;;;;;;11.26;89.07;101745.34;4987708;28;20034;-72
2023/05/14 04:00:15;;;;;;;31.10;18.77;;;;;;;11.22;90.65;101737.34;4988848;28;20427;-72
2023/05/14 04:02:43;;;;;;;30.67;18.02;;;;;;;11.20;90.73;101738.44;4994765;28;20033;-72
2023/05/14 04:05:08;;;;;;;30.50;18.38;;;;;;;11.17;91.00;101739.47;5009646;28;20029;-72
2023/05/14 04:07:34;;;;;;;27.25;17.15;;;;;;;11.15;90.39;101738.72;5006816;28;20123;-73
2023/05/14 04:10:00;;;;;;;31.75;20.45;;;;;;;11.12;91.78;101738.00;4999474;28;20031;-73
2023/05/14 04:12:26;;;;;;;31.55;19.17;;;;;;;11.07;92.33;101730.13;4988695;28;20034;-73
2023/05/14 04:14:51;;;;;;;30.67;19.45;;;;;;;11.05;91.79;101734.78;4996965;28;20031;-73
2023/05/14 04:17:17;;;;;;;27.63;19.50;;;;;;;11.05;92.29;101733.88;4987980;28;20029;-72
2023/05/14 04:19:42;;;;;;;28.75;18.95;;;;;;;11.03;91.90;101734.00;4988361;28;20521;-72
2023/05/14 04:22:08;;;;;;;28.10;18.60;;;;;;;11.03;91.40;101724.94;4988084;28;20470;-72
2023/05/14 04:24:33;;;;;;;28.23;18.25;;;;;;;11.04;91.19;101738.47;4989100;28;20153;-72
2023/05/14 04:26:58;;;;;;;31.00;18.92;;;;;;;11.05;92.37;101739.34;4988498;28;20074;-72
2023/05/14 04:29:24;;;;;;;30.45;18.48;;;;;;;11.05;90.95;101728.44;4989429;28;20022;-73
2023/05/14 04:31:49;;;;;;;27.38;17.40;;;;;;;11.09;90.94;101730.00;4999453;28;20485;-72
2023/05/14 04:34:14;;;;;;;33.50;18.58;;;;;;;11.08;91.83;101726.41;4989049;28;20145;-73
2023/05/14 04:36:40;;;;;;;29.25;18.35;;;;;;;11.10;91.15;101721.78;4987398;28;20451;-72
2023/05/14 04:39:05;;;;;;;28.67;18.73;;;;;;;11.12;91.74;101741.59;4987733;28;20570;-72
2023/05/14 04:41:30;;;;;;;27.27;18.77;;;;;;;11.15;91.63;101722.38;4988845;28;20042;-72
2023/05/14 04:43:57;;;;;;;27.30;17.75;;;;;;;11.18;91.44;101733.06;4989958;28;20034;-72
2023/05/14 04:46:23;;;;;;;25.55;17.63;;;;;;;11.21;91.37;101730.16;5004273;28;20053;-72
2023/05/14 04:48:49;;;;;;;36.47;19.77;;;;;;;11.20;92.17;101736.56;4987376;28;20129;-72
2023/05/14 04:51:14;;;;;;;31.38;19.10;;;;;;;11.23;91.16;101730.91;5003402;28;20481;-72
2023/05/14 04:53:40;;;;;;;29.58;18.27;;;;;;;11.28;91.36;101737.94;4992840;28;20038;-73
2023/05/14 04:56:05;;;;;;;27.35;18.38;;;;;;;11.33;91.16;101735.81;4991581;28;20137;-72
2023/05/14 04:58:31;;;;;;;30.70;17.83;;;;;;;11.35;91.19;101736.59;4987423;28;20042;-73
2023/05/14 05:00:57;;;;;;;29.75;17.50;;;;;;;11.36;90.82;101736.50;4988710;28;20034;-72
2023/05/14 05:03:23;;;;;;;33.92;18.70;;;;;;;11.40;90.88;101743.53;4988297;28;20046;-72
2023/05/14 05:05:48;;;;;;;29.42;17.90;;;;;;;11.44;90.31;101736.91;4988548;28;20092;-73
2023/05/14 05:08:13;;;;;;;25.98;17.30;;;;;;;11.47;91.24;101736.75;4986200;28;20410;-73
2023/05/14 05:10:39;;;;;;;26.30;17.33;;;;;;;11.46;90.86;101734.09;4998748;28;20108;-73
2023/05/14 05:13:04;;;;;;;29.65;16.90;;;;;;;11.52;90.67;101735.53;5006723;28;20076;-73
2023/05/14 05:15:30;;;;;;;27.08;15.77;;;;;;;11.54;90.02;101723.59;5008543;28;20034;-73
2023/05/14 05:17:55;;;;;;;28.02;18.20;;;;;;;11.67;90.55;101743.66;5001523;28;20027;-73
2023/05/14 05:20:20;;;;;;;27.30;17.02;;;;;;;11.76;89.13;101744.94;4988418;28;20045;-73
2023/05/14 05:22:46;;;;;;;30.02;16.02;;;;;;;11.83;89.18;101743.59;4987201;28;20034;-72
2023/05/14 05:25:11;;;;;;;29.80;16.58;;;;;;;11.93;89.55;101750.22;4987915;28;20042;-73
2023/05/14 05:27:37;;;;;;;25.50;16.40;;;;;;;12.02;88.39;101747.88;4988376;28;20474;-73
2023/05/14 05:30:03;;;;;;;26.05;16.20;;;;;;;11.96;89.23;101760.06;4988227;28;20073;-73
2023/05/14 05:32:29;;;;;;;24.05;16.58;;;;;;;11.92;89.63;101755.78;4988394;28;20115;-72
2023/05/14 05:34:55;;;;;;;29.55;16.20;;;;;;;11.91;90.35;101749.44;4987392;28;20030;-73
2023/05/14 05:37:21;;;;;;;26.83;15.80;;;;;;;11.91;90.29;101745.84;4985038;28;20058;-73
2023/05/14 05:39:47;;;;;;;27.00;16.35;;;;;;;11.93;89.66;101746.63;4987840;28;20026;-72
2023/05/14 05:42:13;;;;;;;25.85;16.30;;;;;;;11.96;88.81;101752.75;4989928;28;20065;-73
2023/05/14 05:44:38;;;;;;;26.60;15.70;;;;;;;11.91;89.94;101756.75;5002931;28;20076;-73
2023/05/14 05:47:03;;;;;;;24.70;15.95;;;;;;;11.82;90.53;101757.31;4986426;28;20121;-72
2023/05/14 05:49:29;;;;;;;27.63;16.08;;;;;;;11.81;89.81;101752.81;4988513;28;20445;-73
2023/05/14 05:51:55;;;;;;;26.63;16.40;;;;;;;11.85;91.11;101757.16;4986048;28;20065;-73
2023/05/14 05:54:22;;;;;;;25.85;16.55;;;;;;;11.87;90.51;101757.91;4987080;28;20070;-73
2023/05/14 05:56:47;;;;;;;28.05;16.13;;;;;;;11.87;91.00;101752.47;4987329;28;20068;-73
2023/05/14 05:59:13;;;;;;;24.75;15.60;;;;;;;11.89;90.79;101765.03;4987734;28;20498;-72
2023/05/14 06:01:40;;;;;;;28.20;16.73;;;;;;;11.88;91.47;101767.84;4987774;28;20475;-73
2023/05/14 06:04:05;;;;;;;27.65;16.95;;;;;;;11.84;91.43;101767.16;5002409;28;20437;-73
2023/05/14 06:06:31;;;;;;;26.90;17.25;;;;;;;11.87;91.71;101766.97;5002891;28;20061;-72
2023/05/14 06:08:57;;;;;;;29.25;16.90;;;;;;;11.86;91.00;101764.34;4987128;28;20030;-72
2023/05/14 06:11:22;;;;;;;27.52;17.08;;;;;;;11.87;90.88;101766.09;4987097;28;20401;-73
2023/05/14 06:13:47;;;;;;;25.55;16.55;;;;;;;11.92;91.13;101773.00;4987434;28;20033;-72
2023/05/14 06:16:13;;;;;;;26.88;16.67;;;;;;;12.02;90.39;101775.16;4991025;28;20037;-72
2023/05/14 06:18:38;;;;;;;25.73;16.02;;;;;;;12.16;89.97;101769.69;5003745;28;20045;-72
2023/05/14 06:21:04;;;;;;;27.23;16.55;;;;;;;12.23;91.38;101781.97;5000331;28;20089;-68
2023/05/14 06:23:30;;;;;;;31.95;17.15;;;;;;;12.24;90.33;101781.00;4986293;28;20027;-68
2023/05/14 06:25:55;;;;;;;26.60;16.02;;;;;;;12.35;89.92;101785.75;4987070;28;20449;-68
2023/05/14 06:28:20;;;;;;;31.30;16.38;;;;;;;12.38;89.23;101791.00;4986680;28;20046;-68
2023/05/14 06:30:49;;;;;;;27.85;18.63;;;;;;;12.34;89.89;101782.16;4986853;28;20019;-68
2023/05/14 06:33:14;;;;;;;26.92;15.43;;;;;;;12.36;89.48;101787.53;5001981;28;20049;-68
2023/05/14 06:35:40;;;;;;;28.27;16.52;;;;;;;12.45;89.91;101787.81;4991718;28;20038;-68
2023/05/14 06:38:05;;;;;;;26.90;16.20;;;;;;;12.56;88.80;101788.94;4991949;28;20569;-68
2023/05/14 06:40:31;;;;;;;27.17;17.48;;;;;;;12.64;89.14;101779.28;4995886;28;20069;-68
2023/05/14 06:42:56;;;;;;;23.17;15.00;;;;;;;12.79;88.98;101782.84;4999461;28;20030;-68
2023/05/14 06:45:21;;;;;;;29.05;16.40;;;;;;;12.89;87.78;101780.34;5006819;28;20109;-68
2023/05/14 06:47:47;;;;;;;30.38;16.77;;;;;;;13.00;89.33;101775.03;5005294;28;20386;-68
2023/05/14 06:50:12;;;;;;;27.30;15.90;;;;;;;13.26;89.19;101773.31;4989076;28;20046;-68
2023/05/14 06:52:38;;;;;;;24.13;16.02;;;;;;;13.32;87.77;101775.59;4986027;28;20038;-68
2023/05/14 06:55:03;;;;;;;29.13;16.40;;;;;;;13.44;88.03;101771.16;4986700;28;20050;-68
2023/05/14 06:57:29;;;;;;;27.50;15.68;;;;;;;13.47;86.08;101780.00;4986211;28;20077;-68
2023/05/14 06:59:54;;;;;;;24.25;15.27;;;;;;;13.67;86.75;101773.16;4987308;28;20061;-68
2023/05/14 07:02:19;;;;;;;22.63;14.93;;;;;;;13.88;84.73;101775.34;4986733;28;20046;-68
2023/05/14 07:04:45;;;;;;;24.27;16.00;;;;;;;14.01;84.29;101770.72;4987105;28;20023;-69
2023/05/14 07:07:14;;;;;;;23.48;15.25;;;;;;;14.07;84.66;101772.16;4985910;28;20129;-69
2023/05/14 07:09:40;;;;;;;22.27;14.80;;;;;;;14.09;83.37;101771.06;4986645;28;20383;-69
2023/05/14 07:12:06;;;;;;;23.48;15.35;;;;;;;14.15;83.73;101767.88;4987278;28;20061;-68
2023/05/14 07:14:32;;;;;;;29.80;15.63;;;;;;;14.35;84.10;101769.13;5001277;28;20061;-69
2023/05/14 07:16:57;;;;;;;23.13;14.48;;;;;;;14.53;81.75;101776.03;4987051;28;20030;-68
2023/05/14 07:19:23;;;;;;;21.77;15.23;;;;;;;14.48;80.51;101770.03;4986999;28;20034;-69
2023/05/14 07:21:48;;;;;;;26.27;15.38;;;;;;;14.50;80.20;101772.63;4984957;28;20034;-69
2023/05/14 07:24:13;;;;;;;25.27;15.70;;;;;;;14.47;81.89;101768.25;4985629;28;20085;-70
2023/05/14 07:26:39;;;;;;;22.73;13.80;;;;;;;14.56;81.67;101768.59;4986772;28;20041;-69
2023/05/14 07:29:04;;;;;;;27.48;15.40;;;;;;;14.51;81.38;101766.19;4986813;28;20069;-70
2023/05/14 07:31:30;;;;;;;29.65;16.65;;;;;;;14.41;83.55;101765.06;4988381;28;20030;-70
2023/05/14 07:33:55;;;;;;;25.08;14.60;;;;;;;14.37;81.65;101772.66;5006288;28;20569;-68
2023/05/14 07:36:20;;;;;;;24.17;14.35;;;;;;;14.45;81.52;101772.06;5003899;28;20427;-67
2023/05/14 07:38:46;;;;;;;26.23;15.95;;;;;;;14.58;82.80;101775.69;4988265;28;20400;-67
2023/05/14 07:41:11;;;;;;;22.83;14.70;;;;;;;14.63;83.12;101778.09;5004315;28;20033;-68
2023/05/14 07:43:37;;;;;;;23.13;15.48;;;;;;;14.68;83.58;101774.00;5000365;28;20466;-68
2023/05/14 07:46:03;;;;;;;26.05;16.27;;;;;;;14.76;84.48;101770.69;4990545;28;20485;-68
2023/05/14 07:48:28;;;;;;;26.17;15.52;;;;;;;14.99;82.52;101777.19;5005370;28;20046;-68
2023/05/14 07:50:54;;;;;;;29.77;15.68;;;;;;;15.05;81.29;101771.22;4990543;28;20089;-69
2023/05/14 07:53:20;;;;;;;21.63;13.95;;;;;;;15.20;80.64;101774.66;4988339;28;20422;-68
2023/05/14 07:55:47;;;;;;;22.92;14.93;;;;;;;15.29;83.33;101757.50;4997856;28;20482;-68
2023/05/14 07:58:13;;;;;;;22.23;14.90;;;;;;;15.59;81.25;101764.31;4989863;28;20521;-68
2023/05/14 08:00:38;;;;;;;25.13;14.52;;;;;;;16.00;81.01;101763.81;4989877;28;20042;-68
2023/05/14 08:03:04;;;;;;;19.80;13.93;;;;;;;16.26;78.55;101754.28;4988368;28;20085;-68
2023/05/14 08:05:30;;;;;;;17.85;13.55;;;;;;;16.78;77.17;101757.38;4989136;28;20022;-68
2023/05/14 08:07:56;;;;;;;21.48;14.00;;;;;;;17.13;74.06;101756.25;4989086;28;20050;-68
2023/05/14 08:10:21;;;;;;;18.42;13.27;;;;;;;17.55;73.98;101757.19;4989315;28;20483;-68
2023/05/14 08:12:46;;;;;;;16.52;12.70;;;;;;;17.95;70.71;101757.31;4989857;28;20120;-68
2023/05/14 08:15:12;;;;;;;21.15;13.68;;;;;;;18.25;67.34;101753.69;4989644;28;20045;-69
2023/05/14 08:17:37;;;;;;;19.80;12.50;;;;;;;18.34;68.15;101751.97;4988234;28;20049;-68
2023/05/14 08:20:05;;;;;;;18.55;12.52;;;;;;;18.37;66.15;101759.94;5004814;28;20117;-69
2023/05/14 08:22:31;;;;;;;19.02;13.07;;;;;;;18.05;65.93;101757.38;4988842;28;20185;-69
2023/05/14 08:24:56;;;;;;;19.00;13.10;;;;;;;18.08;70.51;101755.19;4989119;28;20099;-68
2023/05/14 08:27:21;;;;;;;19.63;13.20;;;;;;;18.29;68.86;101760.66;4989261;28;20069;-68
2023/05/14 08:29:47;;;;;;;19.70;14.00;;;;;;;18.45;69.45;101751.84;4988446;28;20042;-69
2023/05/14 08:32:12;;;;;;;16.88;12.82;;;;;;;18.61;70.21;101762.38;4987478;28;20045;-69
2023/05/14 08:34:38;;;;;;;19.10;13.38;;;;;;;18.91;68.29;101753.16;4987897;28;20511;-68
2023/05/14 08:37:03;;;;;;;15.43;11.15;;;;;;;19.25;65.64;101750.84;4987903;28;20054;-68
2023/05/14 08:39:29;;;;;;;18.80;11.63;;;;;;;19.53;64.30;101748.22;5003148;28;20773;-68
2023/05/14 08:41:56;;;;;;;19.33;11.88;;;;;;;19.77;62.38;101739.47;4988136;28;20033;-68
2023/05/14 08:44:51;;;;;;;15.75;12.63;;;;;;;19.78;65.04;101742.13;4987303;28;20042;-69
2023/05/14 08:47:17;;;;;;;17.08;12.27;;;;;;;19.77;62.45;101742.25;4987372;28;20104;-68
2023/05/14 08:49:45;;;;;;;17.77;12.25;;;;;;;19.52;60.58;101746.47;4989204;28;20060;-69
2023/05/14 08:52:11;;;;;;;16.48;11.93;;;;;;;19.52;62.48;101744.59;4987853;28;20498;-68
2023/05/14 08:54:38;;;;;;;16.35;11.98;;;;;;;20.01;63.03;101730.72;5003420;28;20026;-69
2023/05/14 08:57:04;;;;;;;17.60;12.15;;;;;;;20.19;62.12;101728.91;4988656;28;20374;-68
2023/05/14 08:59:30;;;;;;;19.33;11.77;;;;;;;20.37;60.73;101724.25;4989652;28;20371;-68
2023/05/14 09:01:59;;;;;;;16.75;10.85;;;;;;;20.38;62.47;101726.03;4989208;28;20124;-68
2023/05/14 09:04:26;;;;;;;14.75;11.35;;;;;;;20.65;59.34;101729.81;4986060;28;20027;-68
2023/05/14 09:06:53;;;;;;;16.83;11.38;;;;;;;20.78;59.30;101723.91;4986678;28;20034;-68
2023/05/14 09:09:22;;;;;;;16.90;10.65;;;;;;;20.76;57.67;101714.91;4987671;28;20482;-68
2023/05/14 09:11:49;;;;;;;15.27;10.00;;;;;;;20.64;56.14;101717.03;4988595;28;20034;-69
2023/05/14 09:14:14;;;;;;;12.10;9.95;;;;;;;20.74;58.57;101715.06;4988379;28;20026;-68
2023/05/14 09:16:42;;;;;;;19.70;11.25;;;;;;;21.08;58.17;101719.91;4988602;28;20402;-68
2023/05/14 09:19:07;;;;;;;16.40;10.35;;;;;;;21.37;61.90;101722.44;4986974;28;20113;-68
2023/05/14 09:21:33;;;;;;;16.10;11.48;;;;;;;21.70;59.79;101712.50;4988118;28;20593;-68
2023/05/14 09:23:59;;;;;;;14.27;9.95;;;;;;;22.02;57.47;101713.72;4988114;28;20387;-68
2023/05/14 09:26:26;;;;;;;17.42;10.32;;;;;;;22.01;56.36;101710.09;5001690;28;20049;-69
2023/05/14 09:28:56;;;;;;;12.45;10.38;;;;;;;21.87;55.23;101703.25;4987264;28;20093;-69
2023/05/14 09:31:22;;;;;;;12.90;9.52;;;;;;;22.36;57.84;101705.44;4990643;28;20041;-68
2023/05/14 09:33:51;;;;;;;15.05;9.90;;;;;;;22.59;56.15;101700.13;5006329;28;20049;-68
2023/05/14 09:36:17;;;;;;;18.08;11.20;;;;;;;22.96;54.83;101696.09;5007159;28;20041;-68
2023/05/14 09:38:42;;;;;;;11.65;8.68;;;;;;;22.94;53.71;101703.69;5000781;28;20354;-69
2023/05/14 09:41:07;;;;;;;12.30;9.07;;;;;;;22.91;50.88;101705.78;4987641;28;20125;-69
2023/05/14 09:43:33;;;;;;;14.13;9.75;;;;;;;23.10;51.78;101693.50;4988374;28;20046;-69
2023/05/14 09:45:58;;;;;;;14.95;8.95;;;;;;;23.47;54.13;101692.09;4988902;28;20057;-69
2023/05/14 09:48:25;;;;;;;11.75;8.95;;;;;;;23.67;53.11;101689.84;4987275;28;20037;-68
2023/05/14 09:50:51;;;;;;;12.25;9.40;;;;;;;23.61;50.08;101690.53;4988305;28;20817;-69
2023/05/14 09:53:17;;;;;;;14.80;8.93;;;;;;;23.82;52.28;101685.28;4986181;28;20069;-68
2023/05/14 09:55:43;;;;;;;14.07;9.20;;;;;;;23.74;53.07;101678.91;4987143;28;20081;-68
2023/05/14 09:58:09;;;;;;;13.93;8.95;;;;;;;23.80;51.84;101681.84;4987697;28;20042;-69
2023/05/14 10:00:35;;;;;;;13.85;9.02;;;;;;;23.80;51.82;101681.84;4987983;28;20037;-69
2023/05/14 10:03:05;;;;;;;16.08;9.48;;;;;;;24.01;51.14;101685.94;4987240;28;20032;-68
2023/05/14 10:05:35;;;;;;;16.35;9.60;;;;;;;24.15;51.19;101672.19;5002866;28;20042;-69
2023/05/14 10:08:04;;;;;;;11.15;8.57;;;;;;;24.37;51.60;101681.66;4985713;28;20050;-69
2023/05/14 10:10:31;;;;;;;12.77;9.18;;;;;;;24.27;50.70;101680.13;4987967;28;20126;-68
2023/05/14 10:13:03;;;;;;;12.60;9.43;;;;;;;23.98;45.28;101684.41;4986843;28;20172;-68
2023/05/14 10:15:48;;;;;;;13.27;8.90;;;;;;;23.86;50.03;101674.69;4988147;28;20462;-68
2023/05/14 10:18:18;;;;;;;12.75;8.60;;;;;;;24.00;51.73;101682.28;5002278;28;20839;-68
2023/05/14 10:20:47;;;;;;;13.85;7.82;;;;;;;24.32;51.68;101677.66;4985993;28;20053;-68
2023/05/14 10:23:13;;;;;;;14.32;8.88;;;;;;;24.49;50.42;101670.13;4986007;28;20026;-68
2023/05/14 10:25:39;;;;;;;13.20;7.88;;;;;;;24.02;44.62;101677.44;4987226;28;20406;-68
2023/05/14 10:28:05;;;;;;;9.95;7.68;;;;;;;24.02;50.55;101679.34;4987478;28;20046;-68
2023/05/14 10:30:31;;;;;;;13.55;7.85;;;;;;;24.54;50.94;101671.31;4987566;28;20558;-69
2023/05/14 10:33:17;;;;;;;12.85;9.27;;;;;;;24.88;50.71;101667.25;4998170;28;20049;-68
2023/05/14 10:36:04;;;;;;;12.90;8.18;;;;;;;24.44;46.41;101665.13;4987339;28;20444;-68
2023/05/14 10:38:34;;;;;;;10.13;7.88;;;;;;;24.69;48.19;101666.69;4986604;28;20046;-68
2023/05/14 10:41:05;;;;;;;9.82;6.88;;;;;;;23.97;42.41;101666.00;4986930;28;20088;-67
2023/05/14 10:43:37;;;;;;;10.73;8.00;;;;;;;23.36;45.51;101665.56;4985850;28;20166;-68
2023/05/14 10:46:03;;;;;;;11.97;8.20;;;;;;;23.44;45.94;101659.13;4987476;28;20038;-68
2023/05/14 10:48:28;;;;;;;9.98;7.55;;;;;;;23.42;44.89;101662.06;4987171;28;20120;-68
2023/05/14 10:50:57;;;;;;;12.50;7.80;;;;;;;23.62;48.41;101658.91;4987049;28;20114;-68
2023/05/14 10:53:37;;;;;;;8.73;6.45;;;;;;;24.23;48.23;101654.56;4985617;28;20045;-68
2023/05/14 10:56:04;;;;;;;13.38;7.70;;;;;;;24.36;41.58;101654.00;4987194;28;20556;-68
2023/05/14 10:58:32;;;;;;;10.05;7.22;;;;;;;24.09;42.85;101647.84;4985745;28;20035;-68
2023/05/14 11:00:59;;;;;;;9.45;7.78;;;;;;;23.89;45.07;101649.31;4987970;28;20458;-68
2023/05/14 11:03:28;;;;;;;10.18;7.28;;;;;;;23.76;45.70;101638.75;4986740;28;20046;-68
2023/05/14 11:05:54;;;;;;;12.48;6.97;;;;;;;24.23;45.65;101646.22;4985743;28;20458;-68
2023/05/14 11:08:21;;;;;;;7.43;6.65;;;;;;;24.77;46.94;101643.50;4990244;28;20241;-68